Time;durP1;ratioP1;P1;durP2;ratioP2;P2;SDS_P1;SDS_P2;PMS_P1;PMS_P2;Temp;Humidity;BMP_temperature;BMP_pressure;BME280_temperature;BME280_humidity;BME280_pressure;Samples;Min_cycle;Max_cycle;Signal;HPM_P1;HPM_P2
2024/01/08 00:01:50;;;;;;;10.98;5.72;;;-2.40;99.90;;;;;;5048665;28;20037;-70
2024/01/08 00:04:16;;;;;;;12.65;6.53;;;-2.40;99.90;;;;;;5052490;28;20514;-70
2024/01/08 00:06:41;;;;;;;12.52;6.68;;;-2.40;99.90;;;;;;5049948;28;20642;-70
2024/01/08 00:09:07;;;;;;;11.52;6.20;;;-2.40;99.90;;;;;;5069590;28;20398;-70
2024/01/08 00:11:32;;;;;;;13.20;6.28;;;-2.40;99.90;;;;;;5047742;28;20399;-70
2024/01/08 00:13:58;;;;;;;10.80;5.85;;;-2.50;99.90;;;;;;5055963;28;20044;-70
2024/01/08 00:16:23;;;;;;;12.85;6.07;;;-2.40;99.90;;;;;;5058856;28;20406;-70
2024/01/08 00:18:49;;;;;;;11.18;6.43;;;-2.40;99.90;;;;;;5063517;28;20372;-70
2024/01/08 00:21:14;;;;;;;9.82;4.88;;;-2.40;99.90;;;;;;5052321;28;20505;-70
2024/01/08 00:23:40;;;;;;;11.50;6.47;;;-2.50;99.90;;;;;;5050361;28;20568;-70
2024/01/08 00:26:06;;;;;;;12.93;6.93;;;-2.50;99.90;;;;;;5059191;28;20145;-70
2024/01/08 00:28:32;;;;;;;12.13;6.03;;;-2.50;99.90;;;;;;5046175;28;20063;-70
2024/01/08 00:30:57;;;;;;;13.02;6.05;;;-2.50;99.90;;;;;;5055956;28;20047;-71
2024/01/08 00:33:23;;;;;;;12.00;6.05;;;-2.50;99.90;;;;;;5042060;28;20406;-70
2024/01/08 00:35:49;;;;;;;14.15;6.63;;;-2.60;99.90;;;;;;5048476;28;20037;-70
2024/01/08 00:38:14;;;;;;;10.73;6.03;;;-2.50;99.90;;;;;;5055622;28;20387;-70
2024/01/08 00:40:40;;;;;;;14.02;6.40;;;-2.50;99.90;;;;;;5069790;28;20037;-70
2024/01/08 00:43:05;;;;;;;12.70;5.72;;;-2.50;99.90;;;;;;5063205;28;20041;-70
2024/01/08 00:45:31;;;;;;;11.52;6.22;;;-2.40;99.90;;;;;;5063579;28;20045;-70
2024/01/08 00:47:57;;;;;;;11.95;5.75;;;-2.40;99.90;;;;;;5070894;28;20055;-70
2024/01/08 00:50:23;;;;;;;11.60;6.28;;;-2.30;99.90;;;;;;5060335;28;20033;-70
2024/01/08 00:52:48;;;;;;;10.38;5.88;;;-2.40;99.90;;;;;;5061315;28;20071;-71
2024/01/08 00:55:14;;;;;;;12.80;6.40;;;-2.40;99.90;;;;;;5035725;28;20041;-70
2024/01/08 00:57:39;;;;;;;12.23;6.00;;;-2.40;99.90;;;;;;5055578;28;20033;-70
2024/01/08 01:00:06;;;;;;;13.95;6.53;;;-2.40;99.90;;;;;;5060684;28;20029;-71
2024/01/08 01:02:31;;;;;;;10.52;5.63;;;-2.40;99.90;;;;;;5053896;28;20051;-70
2024/01/08 01:04:58;;;;;;;13.40;7.15;;;-2.30;99.90;;;;;;5052376;28;20044;-70
2024/01/08 01:07:23;;;;;;;11.73;6.65;;;-2.20;99.90;;;;;;5057723;28;20479;-71
2024/01/08 01:09:49;;;;;;;13.40;6.85;;;-2.10;99.90;;;;;;5047835;28;20044;-71
2024/01/08 01:12:15;;;;;;;12.05;6.25;;;-2.00;99.90;;;;;;5073198;28;20044;-70
2024/01/08 01:14:40;;;;;;;12.13;6.22;;;-1.90;99.90;;;;;;5067088;28;20041;-71
2024/01/08 01:17:06;;;;;;;11.45;6.05;;;-1.90;99.90;;;;;;5070425;28;20090;-71
2024/01/08 01:19:32;;;;;;;12.50;6.32;;;-1.80;99.90;;;;;;5043986;28;20132;-70
2024/01/08 01:21:58;;;;;;;11.95;6.25;;;-1.70;99.90;;;;;;5052972;28;20486;-71
2024/01/08 01:24:23;;;;;;;14.60;6.88;;;-1.70;99.90;;;;;;5071241;28;20028;-71
2024/01/08 01:26:49;;;;;;;12.98;6.40;;;-1.60;99.90;;;;;;5041532;28;20449;-71
2024/01/08 01:29:15;;;;;;;12.32;6.68;;;-1.60;99.90;;;;;;5052901;28;20058;-71
2024/01/08 01:31:40;;;;;;;13.05;6.38;;;-1.50;99.90;;;;;;5056466;28;20494;-71
2024/01/08 01:34:07;;;;;;;12.60;7.22;;;-1.50;99.90;;;;;;5066419;28;20095;-71
2024/01/08 01:36:35;;;;;;;11.65;5.72;;;-1.50;99.90;;;;;;5061874;28;20051;-71
2024/01/08 01:39:01;;;;;;;13.00;6.03;;;-1.40;99.90;;;;;;5033443;28;20430;-71
2024/01/08 01:41:27;;;;;;;11.38;5.95;;;-1.40;99.90;;;;;;5061866;28;20058;-71
2024/01/08 01:43:52;;;;;;;12.27;6.32;;;-1.40;99.90;;;;;;5071830;28;20071;-71
2024/01/08 01:46:33;;;;;;;10.85;5.88;;;-1.40;99.90;;;;;;5072435;28;20048;-71
2024/01/08 01:48:59;;;;;;;12.68;6.22;;;-1.30;99.90;;;;;;5041391;28;20099;-71
2024/01/08 01:51:25;;;;;;;10.48;5.55;;;-1.30;99.90;;;;;;5042624;28;20125;-70
2024/01/08 01:53:52;;;;;;;11.38;6.57;;;-1.30;99.90;;;;;;5052073;28;20072;-71
2024/01/08 01:56:18;;;;;;;10.02;5.93;;;-1.30;99.90;;;;;;5035765;28;20037;-71
2024/01/08 01:58:45;;;;;;;12.10;5.85;;;-1.30;99.90;;;;;;5042650;28;20036;-71
2024/01/08 02:01:11;;;;;;;11.30;5.68;;;-1.30;99.90;;;;;;5055689;28;20040;-71
2024/01/08 02:03:37;;;;;;;11.90;6.40;;;-1.30;99.90;;;;;;5034094;28;20068;-71
2024/01/08 02:06:08;;;;;;;12.35;6.18;;;-1.30;99.90;;;;;;5053494;28;20342;-71
2024/01/08 02:08:34;;;;;;;;;;;-1.20;99.90;;;;;;5063918;28;20058;-71
2024/01/08 02:10:59;;;;;;;9.45;5.20;;;-1.20;99.90;;;;;;5071884;28;20033;-71
2024/01/08 02:13:25;;;;;;;12.82;6.68;;;-1.20;99.90;;;;;;5058148;28;20041;-71
2024/01/08 02:15:51;;;;;;;16.33;6.82;;;-1.20;99.90;;;;;;5051416;28;20052;-71
2024/01/08 02:18:19;;;;;;;11.63;6.00;;;-1.00;99.90;;;;;;5050438;28;20051;-71
2024/01/08 02:20:45;;;;;;;8.63;4.78;;;-1.10;99.90;;;;;;5061594;28;20043;-71
2024/01/08 02:23:10;;;;;;;12.48;6.38;;;-1.10;99.90;;;;;;5045549;28;20036;-71
2024/01/08 02:25:36;;;;;;;13.05;5.93;;;-1.00;99.90;;;;;;5063278;28;20509;-71
2024/01/08 02:28:02;;;;;;;12.73;6.07;;;-1.00;99.90;;;;;;5050481;28;20086;-71
2024/01/08 02:30:28;;;;;;;10.77;6.07;;;-1.00;99.90;;;;;;5050480;28;20047;-71
2024/01/08 02:32:53;;;;;;;13.77;7.63;;;-1.00;99.90;;;;;;5044572;28;20040;-71
2024/01/08 02:35:19;;;;;;;17.38;7.22;;;-1.00;99.90;;;;;;5053978;28;20041;-71
2024/01/08 02:37:44;;;;;;;14.32;6.78;;;-0.90;99.90;;;;;;5063843;28;20044;-71
2024/01/08 02:40:11;;;;;;;11.30;6.63;;;-0.90;99.90;;;;;;5042065;28;20033;-71
2024/01/08 02:42:40;;;;;;;13.80;6.72;;;-0.90;99.90;;;;;;5052776;28;20032;-71
2024/01/08 02:45:07;;;;;;;12.27;6.25;;;-0.90;99.90;;;;;;5046308;28;20499;-71
2024/01/08 02:47:37;;;;;;;12.75;6.60;;;-0.90;99.90;;;;;;5042922;28;20044;-71
2024/01/08 02:50:04;;;;;;;11.43;6.95;;;-0.90;99.90;;;;;;5044797;28;20479;-71
2024/01/08 02:52:30;;;;;;;14.30;7.20;;;-0.90;99.90;;;;;;5053327;28;20133;-71
2024/01/08 02:54:55;;;;;;;12.68;6.47;;;-0.90;99.90;;;;;;5042483;28;20165;-71
2024/01/08 02:57:21;;;;;;;14.85;7.40;;;-0.90;99.90;;;;;;5061166;28;20037;-71
2024/01/08 02:59:46;;;;;;;13.23;7.00;;;-0.90;99.90;;;;;;5040784;28;20048;-71
2024/01/08 03:02:12;;;;;;;10.48;6.35;;;-0.90;99.90;;;;;;5030925;28;20044;-71
2024/01/08 03:04:38;;;;;;;14.18;7.28;;;-0.80;99.90;;;;;;5051962;28;20047;-71
2024/01/08 03:07:03;;;;;;;12.02;6.63;;;-0.80;99.90;;;;;;5046674;28;20051;-71
2024/01/08 03:09:29;;;;;;;11.95;6.43;;;-0.80;99.90;;;;;;5033709;28;20072;-71
2024/01/08 03:11:54;;;;;;;13.55;7.32;;;-0.80;99.90;;;;;;5030590;28;20041;-71
2024/01/08 03:14:21;;;;;;;12.48;6.80;;;-0.80;99.90;;;;;;5035533;28;20044;-71
2024/01/08 03:16:47;;;;;;;12.65;7.00;;;-0.80;99.90;;;;;;5045805;28;20033;-71
2024/01/08 03:19:12;;;;;;;13.27;7.25;;;-0.80;99.90;;;;;;5038552;28;20037;-71
2024/01/08 03:21:39;;;;;;;15.52;7.60;;;-0.80;99.90;;;;;;5066964;28;20071;-71
2024/01/08 03:24:05;;;;;;;13.77;7.07;;;-0.80;99.90;;;;;;5065959;28;20044;-71
2024/01/08 03:26:31;;;;;;;14.57;7.10;;;-0.70;99.90;;;;;;5036290;28;20045;-71
2024/01/08 03:28:56;;;;;;;15.98;8.20;;;-0.70;99.90;;;;;;5041793;28;20091;-71
2024/01/08 03:31:22;;;;;;;10.88;5.50;;;-0.70;99.90;;;;;;5067562;28;20124;-71
2024/01/08 03:33:48;;;;;;;11.73;6.75;;;-0.70;99.90;;;;;;5063585;28;20486;-71
2024/01/08 03:36:13;;;;;;;14.75;7.00;;;-0.70;99.90;;;;;;5041569;28;20543;-71
2024/01/08 03:38:39;;;;;;;14.85;7.40;;;-0.70;99.90;;;;;;5065158;28;20028;-71
2024/01/08 03:41:04;;;;;;;13.02;7.03;;;-0.60;99.90;;;;;;5055852;28;20037;-71
2024/01/08 03:43:30;;;;;;;12.98;6.93;;;-0.60;99.90;;;;;;5033677;28;20045;-71
2024/01/08 03:45:55;;;;;;;13.57;6.75;;;-0.60;99.90;;;;;;5047182;28;20041;-71
2024/01/08 03:48:21;;;;;;;12.85;6.90;;;-0.60;99.90;;;;;;5068516;28;20044;-72
2024/01/08 03:50:46;;;;;;;12.57;6.90;;;-0.60;99.90;;;;;;5044585;28;20033;-72
2024/01/08 03:53:12;;;;;;;13.77;6.05;;;-0.60;99.90;;;;;;5030316;28;20135;-72
2024/01/08 03:55:37;;;;;;;11.25;5.88;;;-0.60;99.90;;;;;;5051714;28;20483;-71
2024/01/08 03:58:03;;;;;;;14.50;7.05;;;-0.60;99.90;;;;;;5043374;28;20056;-72
2024/01/08 04:00:29;;;;;;;16.48;7.32;;;-0.60;99.90;;;;;;5052257;28;20045;-73
2024/01/08 04:02:55;;;;;;;14.10;7.05;;;-0.60;99.90;;;;;;5069712;28;20043;-73
2024/01/08 04:05:20;;;;;;;15.82;7.78;;;-0.60;99.90;;;;;;5044022;28;20037;-72
2024/01/08 04:07:46;;;;;;;13.82;6.35;;;-0.60;99.90;;;;;;5050733;28;20041;-73
2024/01/08 04:10:12;;;;;;;11.93;5.97;;;-0.60;99.90;;;;;;5061238;28;20037;-71
2024/01/08 04:12:37;;;;;;;12.30;6.22;;;-0.60;99.90;;;;;;5061758;28;20545;-71
2024/01/08 04:15:03;;;;;;;12.65;6.38;;;-0.60;99.90;;;;;;5036329;28;20053;-71
2024/01/08 04:17:29;;;;;;;12.50;6.70;;;-0.60;99.90;;;;;;5034685;28;20064;-71
2024/01/08 04:19:55;;;;;;;11.95;5.72;;;-0.60;99.90;;;;;;5043321;28;20052;-71
2024/01/08 04:22:20;;;;;;;12.80;6.43;;;-0.60;99.90;;;;;;5043744;28;20037;-71
2024/01/08 04:24:46;;;;;;;8.98;5.20;;;-0.60;99.90;;;;;;5033191;28;20044;-71
2024/01/08 04:27:11;;;;;;;12.20;6.30;;;-0.60;99.90;;;;;;5060506;28;20043;-71
2024/01/08 04:29:37;;;;;;;11.32;6.47;;;-0.60;99.90;;;;;;5044048;28;20125;-72
2024/01/08 04:32:03;;;;;;;15.15;7.22;;;-0.60;99.90;;;;;;5036204;28;20398;-72
2024/01/08 04:34:28;;;;;;;12.18;6.57;;;-0.60;99.90;;;;;;5061884;28;20037;-72
2024/01/08 04:36:54;;;;;;;13.45;6.68;;;-0.60;99.90;;;;;;5058309;22;20262;-71
2024/01/08 04:39:19;;;;;;;13.95;6.68;;;-0.60;99.90;;;;;;5042725;28;20538;-71
2024/01/08 04:41:45;;;;;;;12.98;6.75;;;-0.60;99.90;;;;;;5038406;28;20123;-72
2024/01/08 04:44:10;;;;;;;10.48;5.93;;;-0.60;99.90;;;;;;5040049;28;20132;-72
2024/01/08 04:46:36;;;;;;;10.55;6.40;;;-0.60;99.90;;;;;;5056615;28;20491;-72
2024/01/08 04:49:05;;;;;;;10.32;6.13;;;-0.60;99.90;;;;;;5033858;28;20037;-72
2024/01/08 04:51:30;;;;;;;10.00;5.28;;;-0.60;99.90;;;;;;5029204;28;20513;-72
2024/01/08 04:53:56;;;;;;;9.63;5.40;;;-0.60;99.90;;;;;;5023261;28;20041;-72
2024/01/08 04:56:23;;;;;;;10.25;5.35;;;-0.60;99.90;;;;;;5032658;28;20557;-71
2024/01/08 04:58:49;;;;;;;10.15;5.53;;;-0.60;99.90;;;;;;5018193;28;20076;-72
2024/01/08 05:01:15;;;;;;;11.38;6.07;;;-0.60;99.90;;;;;;5031491;28;20033;-72
2024/01/08 05:03:44;;;;;;;11.15;5.60;;;-0.60;99.90;;;;;;5025459;28;20044;-71
2024/01/08 05:06:11;;;;;;;9.68;5.75;;;-0.60;99.90;;;;;;5032471;28;20052;-72
2024/01/08 05:08:38;;;;;;;8.18;4.95;;;-0.60;99.90;;;;;;5023789;28;20526;-72
2024/01/08 05:11:05;;;;;;;11.68;5.57;;;-0.60;99.90;;;;;;5031728;28;20037;-71
2024/01/08 05:13:32;;;;;;;9.15;5.15;;;-0.60;99.90;;;;;;5032226;28;20041;-71
2024/01/08 05:15:57;;;;;;;9.07;5.03;;;-0.60;99.90;;;;;;5026043;28;20052;-72
2024/01/08 05:18:23;;;;;;;10.18;5.30;;;-0.70;99.90;;;;;;5017965;28;20042;-72
2024/01/08 05:20:48;;;;;;;8.50;5.03;;;-0.70;99.90;;;;;;5018320;28;20041;-72
2024/01/08 05:23:14;;;;;;;8.55;4.97;;;-0.70;99.90;;;;;;5011627;28;20056;-72
2024/01/08 05:25:39;;;;;;;9.40;5.15;;;-0.70;99.90;;;;;;5010485;28;20067;-72
2024/01/08 05:28:06;;;;;;;9.85;5.18;;;-0.70;99.90;;;;;;5021208;28;20045;-72
2024/01/08 05:30:31;;;;;;;10.00;5.40;;;-0.70;99.90;;;;;;5031338;28;20103;-72
2024/01/08 05:32:57;;;;;;;8.38;5.10;;;-0.70;99.90;;;;;;5016022;28;20045;-72
2024/01/08 05:35:23;;;;;;;10.07;5.78;;;-0.80;99.90;;;;;;5022220;28;20069;-72
2024/01/08 05:37:48;;;;;;;8.55;5.20;;;-0.80;99.90;;;;;;5030582;28;20037;-72
2024/01/08 05:40:14;;;;;;;8.02;4.47;;;-0.70;99.90;;;;;;5021615;28;20623;-72
2024/01/08 05:42:40;;;;;;;10.20;5.20;;;-0.80;99.90;;;;;;5013015;28;20112;-72
2024/01/08 05:45:07;;;;;;;16.05;6.15;;;-0.80;99.90;;;;;;5019744;28;20030;-72
2024/01/08 05:47:34;;;;;;;9.88;5.72;;;-0.80;99.90;;;;;;5024130;28;20085;-72
2024/01/08 05:50:04;;;;;;;11.15;5.95;;;-0.70;99.90;;;;;;5021153;28;20454;-72
2024/01/08 05:52:30;;;;;;;10.80;5.72;;;-0.70;99.90;;;;;;5024194;28;20042;-71
2024/01/08 05:54:56;;;;;;;11.32;5.68;;;-0.80;99.90;;;;;;5022191;28;20044;-71
2024/01/08 05:57:22;;;;;;;8.02;4.95;;;-0.80;99.90;;;;;;5021940;28;20041;-72
2024/01/08 05:59:47;;;;;;;13.65;6.40;;;-0.80;99.90;;;;;;5009858;28;20385;-72
2024/01/08 06:02:13;;;;;;;9.82;5.03;;;-0.80;99.90;;;;;;5028346;28;20068;-72
2024/01/08 06:04:38;;;;;;;13.57;6.18;;;-0.80;99.90;;;;;;5032082;28;20124;-72
2024/01/08 06:07:04;;;;;;;11.15;5.90;;;-0.80;99.90;;;;;;5016639;28;20065;-72
2024/01/08 06:09:30;;;;;;;11.73;6.15;;;-0.80;99.90;;;;;;5028987;28;20096;-72
2024/01/08 06:11:56;;;;;;;9.82;5.65;;;-0.80;99.90;;;;;;5030796;28;20049;-72
2024/01/08 06:14:21;;;;;;;11.32;5.65;;;-0.80;99.90;;;;;;5029418;28;20037;-72
2024/01/08 06:16:47;;;;;;;10.98;5.97;;;-0.80;99.90;;;;;;5019162;28;20542;-72
2024/01/08 06:19:12;;;;;;;11.68;5.15;;;-0.80;99.90;;;;;;5022077;28;20041;-72
2024/01/08 06:21:38;;;;;;;11.40;5.80;;;-0.80;99.90;;;;;;5021753;28;20040;-72
2024/01/08 06:24:04;;;;;;;11.18;6.20;;;-0.80;99.90;;;;;;5025199;28;20048;-76
2024/01/08 06:26:31;;;;;;;12.73;5.80;;;-0.80;99.90;;;;;;5020277;28;20447;-73
2024/01/08 06:28:56;;;;;;;11.70;6.38;;;-0.80;99.90;;;;;;5028770;28;20495;-73
2024/01/08 06:31:22;;;;;;;11.27;6.13;;;-0.80;99.90;;;;;;5013509;28;20036;-73
2024/01/08 06:33:47;;;;;;;13.10;6.40;;;-0.80;99.90;;;;;;5022886;28;20044;-73
2024/01/08 06:36:13;;;;;;;11.65;6.57;;;-0.80;99.90;;;;;;5031148;28;20049;-72
2024/01/08 06:38:38;;;;;;;13.85;6.05;;;-0.90;99.90;;;;;;5025261;28;20065;-72
2024/01/08 06:41:05;;;;;;;12.48;6.65;;;-0.90;99.90;;;;;;5013075;28;20095;-73
2024/01/08 06:43:31;;;;;;;12.13;6.43;;;-0.90;99.90;;;;;;5030161;28;20053;-72
2024/01/08 06:45:59;;;;;;;11.65;6.70;;;-0.80;99.90;;;;;;5022213;28;20443;-73
2024/01/08 06:48:24;;;;;;;11.55;5.13;;;-0.90;99.90;;;;;;5019608;28;20045;-71
2024/01/08 06:50:50;;;;;;;15.45;6.72;;;-0.90;99.90;;;;;;5021004;28;20053;-72
2024/01/08 06:53:25;;;;;;;12.15;6.15;;;-0.90;99.90;;;;;;5018472;28;20049;-71
2024/01/08 06:55:50;;;;;;;13.10;6.38;;;-0.90;99.90;;;;;;5008601;28;20132;-72
2024/01/08 06:58:16;;;;;;;13.43;6.55;;;-0.90;99.90;;;;;;5019545;28;20132;-72
2024/01/08 07:00:41;;;;;;;11.50;6.43;;;-0.90;99.90;;;;;;5018310;28;20117;-72
2024/01/08 07:03:07;;;;;;;16.02;6.55;;;-0.90;99.90;;;;;;5008601;28;20037;-72
2024/01/08 07:05:33;;;;;;;13.98;6.43;;;-0.90;99.90;;;;;;5020563;28;20049;-72
2024/01/08 07:07:59;;;;;;;12.80;6.90;;;-0.90;99.90;;;;;;5013533;28;20038;-72
2024/01/08 07:10:26;;;;;;;13.18;6.47;;;-0.80;99.90;;;;;;5027599;28;20042;-72
2024/01/08 07:12:52;;;;;;;11.45;6.15;;;-0.90;99.90;;;;;;5018595;28;20041;-72
2024/01/08 07:15:40;;;;;;;11.98;5.72;;;-0.90;99.90;;;;;;5021016;28;20099;-72
2024/01/08 07:18:08;;;;;;;10.60;6.15;;;-0.80;99.90;;;;;;5030191;28;20089;-72
2024/01/08 07:20:36;;;;;;;13.77;7.30;;;-0.80;99.90;;;;;;5030146;28;20053;-72
2024/01/08 07:23:01;;;;;;;12.20;6.18;;;-0.80;99.90;;;;;;5025297;28;20073;-72
2024/01/08 07:25:27;;;;;;;13.25;6.15;;;-0.80;99.90;;;;;;5030716;28;20073;-72
2024/01/08 07:27:52;;;;;;;13.07;6.40;;;-0.80;99.90;;;;;;5029869;28;20492;-72
2024/01/08 07:30:18;;;;;;;12.68;6.28;;;-0.80;99.90;;;;;;5019330;28;20041;-72
2024/01/08 07:32:43;;;;;;;10.57;5.85;;;-0.80;99.90;;;;;;5020535;28;20087;-72
2024/01/08 07:35:09;;;;;;;11.27;6.53;;;-0.80;99.90;;;;;;5018631;28;20488;-71
2024/01/08 07:37:34;;;;;;;14.35;6.43;;;-0.70;99.90;;;;;;5028653;28;20037;-72
2024/01/08 07:40:00;;;;;;;11.52;5.95;;;-0.70;99.90;;;;;;5030993;28;20037;-72
2024/01/08 07:42:26;;;;;;;13.93;7.13;;;-0.70;99.90;;;;;;5025205;28;20041;-71
2024/01/08 07:44:51;;;;;;;15.23;6.43;;;-0.70;99.90;;;;;;5029486;28;20446;-72
2024/01/08 07:47:17;;;;;;;14.68;6.30;;;-0.70;99.90;;;;;;5025702;28;20408;-71
2024/01/08 07:49:42;;;;;;;12.63;6.50;;;-0.70;99.90;;;;;;5033654;28;20446;-72
2024/01/08 07:52:08;;;;;;;13.65;6.32;;;-0.70;99.90;;;;;;5033717;28;20049;-72
2024/01/08 07:54:33;;;;;;;10.15;5.95;;;-0.70;99.90;;;;;;5028388;28;20038;-72
2024/01/08 07:56:59;;;;;;;11.70;6.22;;;-0.70;99.90;;;;;;5018027;28;20121;-72
2024/01/08 07:59:24;;;;;;;12.80;6.47;;;-0.60;99.90;;;;;;5022427;28;20069;-72
2024/01/08 08:01:50;;;;;;;17.55;8.18;;;-0.60;99.90;;;;;;5012973;28;20449;-72
2024/01/08 08:04:15;;;;;;;12.10;6.47;;;-0.60;99.90;;;;;;5015606;28;20124;-72
2024/01/08 08:06:41;;;;;;;13.32;5.82;;;-0.60;99.90;;;;;;5021290;28;20126;-72
2024/01/08 08:09:06;;;;;;;10.05;6.15;;;-0.60;99.90;;;;;;5013437;28;20121;-72
2024/01/08 08:11:32;;;;;;;12.00;5.82;;;-0.50;99.90;;;;;;5013188;28;20060;-72
2024/01/08 08:13:58;;;;;;;12.50;6.20;;;-0.50;99.90;;;;;;5026522;28;20113;-71
2024/01/08 08:16:24;;;;;;;12.95;6.63;;;-0.50;99.90;;;;;;5027802;28;20115;-72
2024/01/08 08:18:49;;;;;;;15.07;6.40;;;-0.50;99.90;;;;;;5018384;28;20466;-72
2024/01/08 08:21:16;;;;;;;13.25;5.57;;;-0.40;99.90;;;;;;5029151;28;20033;-72
2024/01/08 08:23:42;;;;;;;7.90;4.78;;;-0.40;99.90;;;;;;5015993;28;20053;-72
2024/01/08 08:26:07;;;;;;;13.38;6.07;;;-0.40;99.90;;;;;;5032934;28;20570;-71
2024/01/08 08:28:33;;;;;;;11.57;6.15;;;-0.40;99.90;;;;;;5031904;28;20128;-72
2024/01/08 08:30:58;;;;;;;9.27;5.30;;;-0.40;99.90;;;;;;5034371;28;20072;-71
2024/01/08 08:33:24;;;;;;;10.52;5.50;;;-0.40;99.90;;;;;;5017447;28;20052;-72
2024/01/08 08:35:50;;;;;;;12.10;5.80;;;-0.40;99.90;;;;;;5020106;28;20045;-72
2024/01/08 08:38:16;;;;;;;11.07;5.95;;;-0.40;99.90;;;;;;5023558;28;20529;-71
2024/01/08 08:40:43;;;;;;;11.43;5.18;;;-0.40;99.90;;;;;;5025307;28;20040;-72
2024/01/08 08:43:09;;;;;;;12.13;6.13;;;-0.30;99.90;;;;;;5024726;28;20088;-72
2024/01/08 08:45:35;;;;;;;9.88;5.45;;;-0.30;99.90;;;;;;5013039;28;20395;-71
2024/01/08 08:48:00;;;;;;;10.50;5.25;;;-0.20;99.90;;;;;;5018958;28;20508;-72
2024/01/08 08:50:27;;;;;;;8.45;5.30;;;-0.20;99.90;;;;;;5030549;28;20095;-72
2024/01/08 08:52:52;;;;;;;9.70;5.20;;;-0.20;99.90;;;;;;5017810;28;20049;-72
2024/01/08 08:55:18;;;;;;;9.48;5.10;;;-0.20;99.90;;;;;;5022635;28;20033;-72
2024/01/08 08:57:44;;;;;;;8.45;5.00;;;-0.10;99.90;;;;;;5025463;28;20077;-72
2024/01/08 09:00:10;;;;;;;8.82;5.28;;;-0.10;99.90;;;;;;5012553;28;20048;-71
2024/01/08 09:02:36;;;;;;;8.68;4.88;;;-0.10;99.90;;;;;;5016354;28;20038;-72
2024/01/08 09:05:03;;;;;;;10.32;5.53;;;-0.10;99.90;;;;;;5031464;28;20048;-72
2024/01/08 09:07:28;;;;;;;9.68;4.72;;;-0.10;99.90;;;;;;5033188;28;20383;-72
2024/01/08 09:09:54;;;;;;;12.40;6.13;;;0.00;99.90;;;;;;5016316;28;20056;-72
2024/01/08 09:12:20;;;;;;;15.57;5.70;;;0.00;99.90;;;;;;5020945;28;20029;-72
2024/01/08 09:14:45;;;;;;;11.50;4.95;;;0.10;99.90;;;;;;5012017;28;20395;-72
2024/01/08 09:17:11;;;;;;;10.18;4.75;;;0.10;99.90;;;;;;5016506;28;20049;-72
2024/01/08 09:19:38;;;;;;;10.55;5.45;;;0.10;99.90;;;;;;5022032;28;22611;-72
2024/01/08 09:22:03;;;;;;;10.65;5.65;;;0.10;99.90;;;;;;5025331;28;20041;-71
2024/01/08 09:24:29;;;;;;;9.68;5.15;;;0.10;99.90;;;;;;5024097;28;20048;-71
2024/01/08 09:26:55;;;;;;;16.00;5.60;;;0.10;99.90;;;;;;5020719;28;20088;-71
2024/01/08 09:29:21;;;;;;;11.80;5.65;;;0.20;99.90;;;;;;5032083;28;20060;-72
2024/01/08 09:31:46;;;;;;;10.02;5.38;;;0.20;99.90;;;;;;5030833;28;20041;-72
2024/01/08 09:34:12;;;;;;;9.80;5.18;;;0.20;99.90;;;;;;5028011;28;20084;-72
2024/01/08 09:36:38;;;;;;;9.68;5.50;;;0.20;99.90;;;;;;5029612;28;20124;-72
2024/01/08 09:39:03;;;;;;;8.05;4.85;;;0.20;99.90;;;;;;5024676;28;20068;-72
2024/01/08 09:41:29;;;;;;;10.45;4.85;;;0.20;99.90;;;;;;5015575;28;20091;-72
2024/01/08 09:44:01;;;;;;;8.68;5.32;;;0.20;99.90;;;;;;5020646;28;20065;-72
2024/01/08 09:46:30;;;;;;;8.57;5.38;;;0.20;99.90;;;;;;5022940;28;20056;-71
2024/01/08 09:48:56;;;;;;;9.25;5.45;;;0.20;99.90;;;;;;5011614;28;20048;-72
2024/01/08 09:51:22;;;;;;;9.95;5.38;;;0.20;99.90;;;;;;5022096;28;20041;-72
2024/01/08 09:53:49;;;;;;;10.35;5.10;;;0.30;99.90;;;;;;5020781;28;20386;-72
2024/01/08 09:56:17;;;;;;;13.35;5.65;;;0.30;99.90;;;;;;5030553;28;20055;-72
2024/01/08 09:58:43;;;;;;;8.75;5.35;;;0.30;99.90;;;;;;5023563;28;20124;-72
2024/01/08 10:01:09;;;;;;;10.32;5.70;;;0.30;99.90;;;;;;5022787;28;20476;-72
2024/01/08 10:03:35;;;;;;;9.45;5.30;;;0.30;99.90;;;;;;5021363;28;20124;-71
2024/01/08 10:06:06;;;;;;;14.02;5.32;;;0.30;99.90;;;;;;5031109;28;20053;-72
2024/01/08 10:08:32;;;;;;;9.13;5.00;;;0.30;99.90;;;;;;5020906;28;20129;-72
2024/01/08 10:10:57;;;;;;;10.02;5.35;;;0.30;99.90;;;;;;5031758;28;20124;-72
2024/01/08 10:13:23;;;;;;;10.10;4.97;;;0.30;99.90;;;;;;5030354;28;20077;-72
2024/01/08 10:15:49;;;;;;;9.82;5.57;;;0.30;99.90;;;;;;5020085;28;20064;-72
2024/01/08 10:18:16;;;;;;;12.13;5.65;;;0.40;99.90;;;;;;5027668;28;20037;-72
2024/01/08 10:20:44;;;;;;;11.25;6.28;;;0.40;99.90;;;;;;5019418;28;20041;-72
2024/01/08 10:23:10;;;;;;;10.23;5.00;;;0.40;99.90;;;;;;5012209;28;20087;-72
2024/01/08 10:25:38;;;;;;;11.52;5.53;;;0.40;99.90;;;;;;5013862;28;20060;-72
2024/01/08 10:28:08;;;;;;;9.90;4.72;;;0.50;99.90;;;;;;5023649;28;20042;-72
2024/01/08 10:30:34;;;;;;;8.70;5.35;;;0.40;99.90;;;;;;5011867;28;20408;-72
2024/01/08 10:32:59;;;;;;;7.40;4.53;;;0.40;99.90;;;;;;5010686;28;20037;-72
2024/01/08 10:35:29;;;;;;;10.00;5.22;;;0.40;99.90;;;;;;5013868;28;20052;-72
2024/01/08 10:37:58;;;;;;;7.43;4.78;;;0.40;99.90;;;;;;5011085;28;20050;-72
2024/01/08 10:40:25;;;;;;;8.50;5.07;;;0.50;99.90;;;;;;5010814;28;20042;-72
2024/01/08 10:42:50;;;;;;;8.77;5.20;;;0.70;99.90;;;;;;5027333;28;20372;-72
2024/01/08 10:45:16;;;;;;;8.27;5.25;;;0.70;99.90;;;;;;5031688;28;20079;-72
2024/01/08 10:47:50;;;;;;;10.07;5.53;;;0.70;99.90;;;;;;5030454;28;20052;-73
2024/01/08 10:50:19;;;;;;;9.90;5.32;;;0.60;99.90;;;;;;5015762;28;20038;-73
2024/01/08 10:52:52;;;;;;;9.98;5.90;;;0.60;99.90;;;;;;5015571;28;20091;-72
2024/01/08 10:55:20;;;;;;;8.98;5.22;;;0.60;99.90;;;;;;5023533;28;20128;-72
2024/01/08 10:57:54;;;;;;;9.65;6.07;;;0.70;99.90;;;;;;5023868;28;20042;-72
2024/01/08 11:00:20;;;;;;;11.40;5.85;;;0.80;99.90;;;;;;5009270;28;20033;-72
2024/01/08 11:02:46;;;;;;;9.55;5.60;;;0.90;99.90;;;;;;5018348;28;20501;-72
2024/01/08 11:05:14;;;;;;;8.35;5.32;;;0.80;99.90;;;;;;5016473;28;20391;-72
2024/01/08 11:07:42;;;;;;;9.30;5.15;;;0.70;99.90;;;;;;5018744;28;20092;-72
2024/01/08 11:10:11;;;;;;;7.72;4.82;;;0.70;99.90;;;;;;5025382;28;20095;-73
2024/01/08 11:12:39;;;;;;;8.55;4.63;;;0.60;99.90;;;;;;5029703;28;20041;-72
2024/01/08 11:15:06;;;;;;;8.88;5.00;;;0.60;99.90;;;;;;5029913;28;20045;-73
2024/01/08 11:17:33;;;;;;;9.63;5.65;;;0.70;99.90;;;;;;5012420;28;20095;-72
2024/01/08 11:19:59;;;;;;;10.48;5.82;;;0.60;99.90;;;;;;5033801;28;20041;-72
2024/01/08 11:22:25;;;;;;;7.13;4.60;;;0.60;99.90;;;;;;5029286;28;20041;-72
2024/01/08 11:24:57;;;;;;;7.28;4.57;;;0.60;99.90;;;;;;5028368;28;20117;-73
2024/01/08 11:27:24;;;;;;;18.15;5.50;;;0.50;99.90;;;;;;5025451;28;20504;-72
2024/01/08 11:30:03;;;;;;;9.43;4.90;;;0.40;99.90;;;;;;5015144;28;20042;-72
2024/01/08 11:33:02;;;;;;;7.43;4.60;;;0.40;99.90;;;;;;5021767;28;20468;-72
2024/01/08 11:35:41;;;;;;;7.65;4.30;;;0.40;99.90;;;;;;5034685;28;20053;-72
2024/01/08 11:38:07;;;;;;;9.45;4.05;;;0.50;99.90;;;;;;5029341;28;21031;-72
2024/01/08 11:40:32;;;;;;;8.65;4.70;;;0.40;99.90;;;;;;5025902;28;20041;-72
2024/01/08 11:42:58;;;;;;;8.55;4.43;;;0.50;99.90;;;;;;5010591;28;20041;-72
2024/01/08 11:45:24;;;;;;;8.73;4.70;;;0.50;99.90;;;;;;5030136;28;20033;-72
2024/01/08 11:47:50;;;;;;;11.80;5.53;;;0.60;99.90;;;;;;5033061;28;20045;-72
2024/01/08 11:50:16;;;;;;;9.23;5.10;;;0.70;99.90;;;;;;5032924;28;20045;-72
2024/01/08 11:52:41;;;;;;;11.02;5.15;;;0.70;99.90;;;;;;5019887;28;20053;-72
2024/01/08 11:55:08;;;;;;;12.80;4.80;;;0.70;99.90;;;;;;5020758;28;20460;-72
2024/01/08 11:57:38;;;;;;;6.00;3.45;;;0.60;99.90;;;;;;5022091;28;20045;-72
2024/01/08 12:00:19;;;;;;;8.52;4.85;;;0.60;99.90;;;;;;5033230;28;20064;-72
2024/01/08 12:02:45;;;;;;;8.57;4.80;;;0.60;99.90;;;;;;5013121;28;20120;-72
2024/01/08 12:05:11;;;;;;;8.05;4.07;;;0.60;99.90;;;;;;5011338;28;20050;-72
2024/01/08 12:07:41;;;;;;;6.95;3.95;;;0.60;99.90;;;;;;5021795;28;20037;-72
2024/01/08 12:10:08;;;;;;;9.88;4.70;;;0.50;99.90;;;;;;5032656;28;20124;-71
2024/01/08 12:12:35;;;;;;;9.60;4.68;;;0.50;99.90;;;;;;5024731;28;20045;-71
2024/01/08 12:15:01;;;;;;;10.70;5.13;;;0.50;99.90;;;;;;5025713;28;20057;-73
2024/01/08 12:17:26;;;;;;;8.35;4.35;;;0.40;99.90;;;;;;5030302;28;20037;-72
2024/01/08 12:19:53;;;;;;;7.80;4.25;;;0.40;99.90;;;;;;5032754;28;20072;-72
2024/01/08 12:22:19;;;;;;;9.40;4.93;;;0.30;99.90;;;;;;5027733;28;20408;-72
2024/01/08 12:24:48;;;;;;;9.40;4.65;;;0.30;99.90;;;;;;5031940;28;20049;-71
2024/01/08 12:27:18;;;;;;;10.15;4.65;;;0.30;99.90;;;;;;5021068;28;20164;-73
2024/01/08 12:29:45;;;;;;;10.93;5.53;;;0.30;99.90;;;;;;5021219;28;20041;-73
2024/01/08 12:32:17;;;;;;;10.23;4.22;;;0.30;99.90;;;;;;5025852;28;20052;-72
2024/01/08 12:34:43;;;;;;;7.57;4.50;;;0.20;99.90;;;;;;5017274;28;20065;-72
2024/01/08 12:37:11;;;;;;;10.63;4.63;;;0.20;99.90;;;;;;5021372;28;20037;-72
2024/01/08 12:39:38;;;;;;;7.82;4.40;;;0.30;99.90;;;;;;5031627;28;20126;-72